sensor_id;sensor_type;location;lat;lon;timestamp;pressure;altitude;pressure_sealevel;temperature;humidity
19114;BME280;9689;51.052;13.772;2023-04-27T00:04:07;100666.88;;;3.02;77.04
19114;BME280;9689;51.052;13.772;2023-04-27T00:09:08;100664.25;;;2.99;76.89
19114;BME280;9689;51.052;13.772;2023-04-27T00:14:09;100659.84;;;2.93;76.83
19114;BME280;9689;51.052;13.772;2023-04-27T00:19:11;100664.94;;;2.89;77.51
19114;BME280;9689;51.052;13.772;2023-04-27T00:24:13;100658.88;;;2.87;77.41
19114;BME280;9689;51.052;13.772;2023-04-27T00:29:13;100655.41;;;2.83;77.59
19114;BME280;9689;51.052;13.772;2023-04-27T00:34:16;100665.66;;;2.80;77.73
19114;BME280;9689;51.052;13.772;2023-04-27T00:39:19;100663.09;;;2.80;77.69
19114;BME280;9689;51.052;13.772;2023-04-27T00:44:22;100665.66;;;2.80;77.46
19114;BME280;9689;51.052;13.772;2023-04-27T00:49:25;100669.88;;;2.76;77.32
19114;BME280;9689;51.052;13.772;2023-04-27T00:54:26;100680.13;;;2.75;77.12
19114;BME280;9689;51.052;13.772;2023-04-27T00:59:27;100676.69;;;2.73;77.00
19114;BME280;9689;51.052;13.772;2023-04-27T01:04:30;100679.09;;;2.64;77.10
19114;BME280;9689;51.052;13.772;2023-04-27T01:09:31;100685.13;;;2.66;76.74
19114;BME280;9689;51.052;13.772;2023-04-27T01:14:35;100685.97;;;2.65;76.83
19114;BME280;9689;51.052;13.772;2023-04-27T01:19:37;100691.84;;;2.58;76.75
19114;BME280;9689;51.052;13.772;2023-04-27T01:24:40;100690.97;;;2.57;77.04
19114;BME280;9689;51.052;13.772;2023-04-27T01:29:41;100695.19;;;2.52;77.47
19114;BME280;9689;51.052;13.772;2023-04-27T01:34:45;100687.34;;;2.47;77.61
19114;BME280;9689;51.052;13.772;2023-04-27T01:39:47;100694.09;;;2.41;77.58
19114;BME280;9689;51.052;13.772;2023-04-27T01:44:48;100706.88;;;2.36;77.69
19114;BME280;9689;51.052;13.772;2023-04-27T01:49:48;100706.75;;;2.32;77.71
19114;BME280;9689;51.052;13.772;2023-04-27T01:54:52;100711.03;;;2.31;78.17
19114;BME280;9689;51.052;13.772;2023-04-27T01:59:54;100712.66;;;2.26;78.35
19114;BME280;9689;51.052;13.772;2023-04-27T02:04:55;100716.78;;;2.18;78.10
19114;BME280;9689;51.052;13.772;2023-04-27T02:09:59;100717.53;;;2.12;77.70
19114;BME280;9689;51.052;13.772;2023-04-27T02:14:59;100721.78;;;2.12;77.48
19114;BME280;9689;51.052;13.772;2023-04-27T02:20:01;100730.22;;;2.06;77.53
19114;BME280;9689;51.052;13.772;2023-04-27T02:25:06;100722.53;;;2.06;77.26
19114;BME280;9689;51.052;13.772;2023-04-27T02:30:08;100722.50;;;2.05;77.05
19114;BME280;9689;51.052;13.772;2023-04-27T02:35:10;100723.22;;;1.99;77.21
19114;BME280;9689;51.052;13.772;2023-04-27T02:40:12;100728.25;;;1.93;77.47
19114;BME280;9689;51.052;13.772;2023-04-27T02:45:13;100725.75;;;1.96;77.40
19114;BME280;9689;51.052;13.772;2023-04-27T02:50:14;100729.81;;;1.86;77.80
19114;BME280;9689;51.052;13.772;2023-04-27T02:55:16;100718.63;;;1.83;77.81
19114;BME280;9689;51.052;13.772;2023-04-27T03:00:21;100726.19;;;1.78;77.63
19114;BME280;9689;51.052;13.772;2023-04-27T03:05:24;100717.50;;;1.73;78.04
19114;BME280;9689;51.052;13.772;2023-04-27T03:10:28;100726.00;;;1.69;78.38
19114;BME280;9689;51.052;13.772;2023-04-27T03:15:28;100734.34;;;1.59;78.61
19114;BME280;9689;51.052;13.772;2023-04-27T03:20:29;100735.16;;;1.58;78.67
19114;BME280;9689;51.052;13.772;2023-04-27T03:25:31;100737.69;;;1.56;78.97
19114;BME280;9689;51.052;13.772;2023-04-27T03:30:32;100755.59;;;1.53;78.88
19114;BME280;9689;51.052;13.772;2023-04-27T03:35:33;100755.50;;;1.49;78.91
19114;BME280;9689;51.052;13.772;2023-04-27T03:40:35;100764.84;;;1.47;78.83
19114;BME280;9689;51.052;13.772;2023-04-27T03:45:37;100772.53;;;1.45;79.24
19114;BME280;9689;51.052;13.772;2023-04-27T03:50:38;100763.13;;;1.47;79.15
19114;BME280;9689;51.052;13.772;2023-04-27T03:55:42;100781.19;;;1.49;78.43
19114;BME280;9689;51.052;13.772;2023-04-27T04:00:43;100782.94;;;1.51;78.62
19114;BME280;9689;51.052;13.772;2023-04-27T04:05:45;100789.84;;;1.54;78.51
19114;BME280;9689;51.052;13.772;2023-04-27T04:10:47;100780.47;;;1.56;78.56
19114;BME280;9689;51.052;13.772;2023-04-27T04:15:48;100786.47;;;2.32;83.19
19114;BME280;9689;51.052;13.772;2023-04-27T04:20:49;100790.41;;;2.55;80.68
19114;BME280;9689;51.052;13.772;2023-04-27T04:25:51;100791.09;;;2.46;78.64
19114;BME280;9689;51.052;13.772;2023-04-27T04:30:52;100802.13;;;2.42;76.22
19114;BME280;9689;51.052;13.772;2023-04-27T04:35:55;100798.63;;;1.99;76.39
19114;BME280;9689;51.052;13.772;2023-04-27T04:40:58;100808.69;;;1.90;76.93
19114;BME280;9689;51.052;13.772;2023-04-27T04:46:03;100805.38;;;1.94;77.09
19114;BME280;9689;51.052;13.772;2023-04-27T04:51:06;100808.91;;;1.99;76.88
19114;BME280;9689;51.052;13.772;2023-04-27T04:56:09;100810.81;;;2.08;76.44
19114;BME280;9689;51.052;13.772;2023-04-27T05:01:11;100813.06;;;2.32;77.13
19114;BME280;9689;51.052;13.772;2023-04-27T05:06:13;100828.84;;;2.49;75.35
19114;BME280;9689;51.052;13.772;2023-04-27T05:11:15;100820.81;;;2.74;73.89
19114;BME280;9689;51.052;13.772;2023-04-27T05:16:16;100830.53;;;2.89;73.09
19114;BME280;9689;51.052;13.772;2023-04-27T05:21:17;100819.56;;;2.99;72.93
19114;BME280;9689;51.052;13.772;2023-04-27T05:26:20;100822.91;;;3.39;72.52
19114;BME280;9689;51.052;13.772;2023-04-27T05:31:21;100818.91;;;3.56;71.02
19114;BME280;9689;51.052;13.772;2023-04-27T05:36:22;100824.19;;;3.65;70.02
19114;BME280;9689;51.052;13.772;2023-04-27T05:41:24;100820.06;;;3.75;68.58
19114;BME280;9689;51.052;13.772;2023-04-27T05:46:25;100814.44;;;4.02;66.80
19114;BME280;9689;51.052;13.772;2023-04-27T05:51:26;100816.34;;;4.15;66.73
19114;BME280;9689;51.052;13.772;2023-04-27T05:56:28;100819.88;;;4.22;66.73
19114;BME280;9689;51.052;13.772;2023-04-27T06:01:29;100807.22;;;4.40;65.67
19114;BME280;9689;51.052;13.772;2023-04-27T06:06:30;100820.25;;;4.51;65.56
19114;BME280;9689;51.052;13.772;2023-04-27T06:11:33;100812.59;;;4.56;65.84
19114;BME280;9689;51.052;13.772;2023-04-27T06:16:34;100811.94;;;4.72;64.47
19114;BME280;9689;51.052;13.772;2023-04-27T06:21:35;100812.13;;;4.89;64.33
19114;BME280;9689;51.052;13.772;2023-04-27T06:26:37;100807.19;;;5.11;64.10
19114;BME280;9689;51.052;13.772;2023-04-27T06:31:37;100814.22;;;5.25;62.95
19114;BME280;9689;51.052;13.772;2023-04-27T06:36:38;100816.94;;;5.38;63.54
19114;BME280;9689;51.052;13.772;2023-04-27T06:41:40;100817.06;;;5.52;62.18
19114;BME280;9689;51.052;13.772;2023-04-27T06:46:50;100813.78;;;5.72;61.27
19114;BME280;9689;51.052;13.772;2023-04-27T06:51:51;100816.50;;;5.90;61.54
19114;BME280;9689;51.052;13.772;2023-04-27T06:56:53;100817.56;;;6.13;60.49
19114;BME280;9689;51.052;13.772;2023-04-27T07:01:54;100818.56;;;6.35;58.89
19114;BME280;9689;51.052;13.772;2023-04-27T07:06:55;100816.06;;;6.54;58.46
19114;BME280;9689;51.052;13.772;2023-04-27T07:11:57;100819.56;;;6.62;57.93
19114;BME280;9689;51.052;13.772;2023-04-27T07:16:59;100819.56;;;6.68;57.70
19114;BME280;9689;51.052;13.772;2023-04-27T07:22:00;100819.59;;;6.74;57.62
19114;BME280;9689;51.052;13.772;2023-04-27T07:27:02;100824.81;;;6.86;57.01
19114;BME280;9689;51.052;13.772;2023-04-27T07:32:04;100820.50;;;6.82;57.40
19114;BME280;9689;51.052;13.772;2023-04-27T07:37:05;100828.25;;;6.80;57.28
19114;BME280;9689;51.052;13.772;2023-04-27T07:42:08;100827.38;;;6.77;55.80
19114;BME280;9689;51.052;13.772;2023-04-27T07:47:09;100836.91;;;6.84;55.69
19114;BME280;9689;51.052;13.772;2023-04-27T07:52:11;100835.25;;;7.04;54.92
19114;BME280;9689;51.052;13.772;2023-04-27T07:57:13;100831.00;;;7.32;54.68
19114;BME280;9689;51.052;13.772;2023-04-27T08:02:14;100837.91;;;7.43;54.50
19114;BME280;9689;51.052;13.772;2023-04-27T08:07:18;100831.91;;;7.57;53.04
19114;BME280;9689;51.052;13.772;2023-04-27T08:12:21;100833.63;;;7.75;51.32
19114;BME280;9689;51.052;13.772;2023-04-27T08:17:22;100829.28;;;7.88;50.71
19114;BME280;9689;51.052;13.772;2023-04-27T08:22:23;100830.16;;;8.01;51.16
19114;BME280;9689;51.052;13.772;2023-04-27T08:27:25;100820.59;;;8.27;51.04
19114;BME280;9689;51.052;13.772;2023-04-27T08:32:25;100830.94;;;8.50;49.53
19114;BME280;9689;51.052;13.772;2023-04-27T08:37:26;100821.34;;;8.66;47.51
19114;BME280;9689;51.052;13.772;2023-04-27T08:42:28;100816.88;;;9.04;46.41
19114;BME280;9689;51.052;13.772;2023-04-27T08:47:30;100815.97;;;9.09;45.88
19114;BME280;9689;51.052;13.772;2023-04-27T08:52:43;100809.75;;;9.29;45.99
19114;BME280;9689;51.052;13.772;2023-04-27T08:57:54;100806.22;;;9.38;46.64
19114;BME280;9689;51.052;13.772;2023-04-27T09:02:55;100800.94;;;9.50;47.19
19114;BME280;9689;51.052;13.772;2023-04-27T09:07:57;100799.78;;;9.85;43.99
19114;BME280;9689;51.052;13.772;2023-04-27T09:13:00;100802.44;;;9.82;43.02
19114;BME280;9689;51.052;13.772;2023-04-27T09:18:00;100801.03;;;10.38;42.07
19114;BME280;9689;51.052;13.772;2023-04-27T09:23:01;100795.78;;;10.39;41.42
19114;BME280;9689;51.052;13.772;2023-04-27T09:28:03;100790.44;;;10.53;41.76
19114;BME280;9689;51.052;13.772;2023-04-27T09:33:04;100790.94;;;10.81;40.37
19114;BME280;9689;51.052;13.772;2023-04-27T09:38:05;100784.13;;;10.68;40.63
19114;BME280;9689;51.052;13.772;2023-04-27T09:43:07;100778.59;;;10.94;39.77
19114;BME280;9689;51.052;13.772;2023-04-27T09:48:09;100775.75;;;11.11;37.65
19114;BME280;9689;51.052;13.772;2023-04-27T09:53:12;100770.63;;;10.38;38.78
19114;BME280;9689;51.052;13.772;2023-04-27T09:58:41;100772.00;;;10.67;38.64
19114;BME280;9689;51.052;13.772;2023-04-27T10:03:58;100774.44;;;11.38;36.04
19114;BME280;9689;51.052;13.772;2023-04-27T10:09:02;100760.47;;;10.86;37.17
19114;BME280;9689;51.052;13.772;2023-04-27T10:14:07;100761.22;;;10.93;36.36
19114;BME280;9689;51.052;13.772;2023-04-27T10:19:09;100763.06;;;10.86;35.63
19114;BME280;9689;51.052;13.772;2023-04-27T10:24:10;100762.72;;;11.09;35.10
19114;BME280;9689;51.052;13.772;2023-04-27T10:29:12;100763.16;;;10.77;36.91
19114;BME280;9689;51.052;13.772;2023-04-27T10:34:16;100770.09;;;10.80;37.24
19114;BME280;9689;51.052;13.772;2023-04-27T10:39:20;100763.13;;;11.40;35.83
19114;BME280;9689;51.052;13.772;2023-04-27T10:44:39;100759.78;;;11.84;34.67
19114;BME280;9689;51.052;13.772;2023-04-27T10:49:41;100759.06;;;11.75;34.06
19114;BME280;9689;51.052;13.772;2023-04-27T10:54:44;100758.78;;;11.93;33.81
19114;BME280;9689;51.052;13.772;2023-04-27T10:59:51;100756.63;;;11.66;34.63
19114;BME280;9689;51.052;13.772;2023-04-27T11:04:54;100750.25;;;11.83;33.16
19114;BME280;9689;51.052;13.772;2023-04-27T11:09:55;100753.03;;;11.73;34.09
19114;BME280;9689;51.052;13.772;2023-04-27T11:14:57;100760.28;;;11.54;35.05
19114;BME280;9689;51.052;13.772;2023-04-27T11:19:58;100757.66;;;11.55;33.67
19114;BME280;9689;51.052;13.772;2023-04-27T11:24:59;100748.63;;;12.23;32.97
19114;BME280;9689;51.052;13.772;2023-04-27T11:30:02;100751.13;;;11.81;33.06
19114;BME280;9689;51.052;13.772;2023-04-27T11:35:03;100755.69;;;11.68;34.25
19114;BME280;9689;51.052;13.772;2023-04-27T11:40:05;100749.50;;;11.74;33.34
19114;BME280;9689;51.052;13.772;2023-04-27T11:45:10;100760.63;;;11.86;33.45
19114;BME280;9689;51.052;13.772;2023-04-27T11:50:11;100760.88;;;12.19;33.21
19114;BME280;9689;51.052;13.772;2023-04-27T11:55:12;100767.13;;;12.12;31.82
19114;BME280;9689;51.052;13.772;2023-04-27T12:00:17;100757.06;;;11.92;32.56
19114;BME280;9689;51.052;13.772;2023-04-27T12:05:18;100766.97;;;12.20;33.02
19114;BME280;9689;51.052;13.772;2023-04-27T12:10:19;100772.50;;;12.48;33.03
19114;BME280;9689;51.052;13.772;2023-04-27T12:15:22;100770.91;;;12.82;31.68
19114;BME280;9689;51.052;13.772;2023-04-27T12:20:23;100771.44;;;12.13;32.63
19114;BME280;9689;51.052;13.772;2023-04-27T12:25:24;100764.72;;;12.46;33.30
19114;BME280;9689;51.052;13.772;2023-04-27T12:30:26;100764.81;;;12.82;32.36
19114;BME280;9689;51.052;13.772;2023-04-27T12:35:26;100761.75;;;12.63;32.39
19114;BME280;9689;51.052;13.772;2023-04-27T12:40:30;100775.25;;;12.83;32.06
19114;BME280;9689;51.052;13.772;2023-04-27T12:45:33;100775.13;;;12.89;31.46
19114;BME280;9689;51.052;13.772;2023-04-27T12:50:36;100770.75;;;12.90;31.77
19114;BME280;9689;51.052;13.772;2023-04-27T12:55:37;100749.31;;;13.50;31.91
19114;BME280;9689;51.052;13.772;2023-04-27T13:00:39;100766.91;;;13.06;31.88
19114;BME280;9689;51.052;13.772;2023-04-27T13:05:40;100756.00;;;12.87;32.89
19114;BME280;9689;51.052;13.772;2023-04-27T13:10:40;100765.06;;;12.71;31.90
19114;BME280;9689;51.052;13.772;2023-04-27T13:15:43;100740.38;;;13.23;32.49
19114;BME280;9689;51.052;13.772;2023-04-27T13:20:43;100745.75;;;12.77;33.02
19114;BME280;9689;51.052;13.772;2023-04-27T13:25:45;100751.13;;;12.29;33.17
19114;BME280;9689;51.052;13.772;2023-04-27T13:30:47;100751.53;;;12.52;34.36
19114;BME280;9689;51.052;13.772;2023-04-27T13:35:48;100754.19;;;12.89;32.70
19114;BME280;9689;51.052;13.772;2023-04-27T13:40:48;100751.44;;;12.95;32.04
19114;BME280;9689;51.052;13.772;2023-04-27T13:45:50;100737.19;;;12.70;33.89
19114;BME280;9689;51.052;13.772;2023-04-27T13:50:53;100740.34;;;12.84;32.42
19114;BME280;9689;51.052;13.772;2023-04-27T13:55:55;100718.56;;;12.45;33.91
19114;BME280;9689;51.052;13.772;2023-04-27T14:00:58;100729.50;;;12.62;33.40
19114;BME280;9689;51.052;13.772;2023-04-27T14:05:59;100735.59;;;12.21;33.52
19114;BME280;9689;51.052;13.772;2023-04-27T14:11:00;100726.69;;;12.30;33.08
19114;BME280;9689;51.052;13.772;2023-04-27T14:16:02;100724.97;;;12.70;35.01
19114;BME280;9689;51.052;13.772;2023-04-27T14:21:03;100722.25;;;12.75;32.30
19114;BME280;9689;51.052;13.772;2023-04-27T14:26:05;100710.66;;;12.87;32.40
19114;BME280;9689;51.052;13.772;2023-04-27T14:31:07;100710.84;;;13.16;33.19
19114;BME280;9689;51.052;13.772;2023-04-27T14:36:08;100711.09;;;13.43;32.56
19114;BME280;9689;51.052;13.772;2023-04-27T14:41:08;100706.81;;;13.03;32.78
19114;BME280;9689;51.052;13.772;2023-04-27T14:46:11;100706.53;;;13.14;32.95
19114;BME280;9689;51.052;13.772;2023-04-27T14:51:19;100702.44;;;13.02;32.25
19114;BME280;9689;51.052;13.772;2023-04-27T14:56:20;100706.50;;;13.15;32.69
19114;BME280;9689;51.052;13.772;2023-04-27T15:01:22;100711.88;;;13.09;32.96
19114;BME280;9689;51.052;13.772;2023-04-27T15:06:23;100705.38;;;13.27;31.95
19114;BME280;9689;51.052;13.772;2023-04-27T15:11:26;100718.75;;;13.13;32.46
19114;BME280;9689;51.052;13.772;2023-04-27T15:16:29;100709.41;;;13.03;33.19
19114;BME280;9689;51.052;13.772;2023-04-27T15:21:30;100701.63;;;13.00;33.19
19114;BME280;9689;51.052;13.772;2023-04-27T15:26:30;100707.34;;;13.16;33.17
19114;BME280;9689;51.052;13.772;2023-04-27T15:31:32;100715.78;;;12.91;32.82
19114;BME280;9689;51.052;13.772;2023-04-27T15:36:33;100712.00;;;12.66;33.39
19114;BME280;9689;51.052;13.772;2023-04-27T15:41:34;100713.03;;;13.35;32.57
19114;BME280;9689;51.052;13.772;2023-04-27T15:46:36;100709.88;;;13.22;33.38
19114;BME280;9689;51.052;13.772;2023-04-27T15:51:37;100714.03;;;13.65;31.92
19114;BME280;9689;51.052;13.772;2023-04-27T15:56:38;100702.03;;;13.20;31.95
19114;BME280;9689;51.052;13.772;2023-04-27T16:01:41;100687.31;;;13.50;32.85
19114;BME280;9689;51.052;13.772;2023-04-27T16:06:42;100688.31;;;13.09;32.76
19114;BME280;9689;51.052;13.772;2023-04-27T16:11:42;100675.16;;;13.80;31.49
19114;BME280;9689;51.052;13.772;2023-04-27T16:16:45;100671.44;;;14.20;31.15
19114;BME280;9689;51.052;13.772;2023-04-27T16:21:46;100671.31;;;14.25;30.94
19114;BME280;9689;51.052;13.772;2023-04-27T16:26:46;100657.53;;;14.18;30.86
19114;BME280;9689;51.052;13.772;2023-04-27T16:31:51;100652.69;;;14.34;31.62
19114;BME280;9689;51.052;13.772;2023-04-27T16:36:52;100653.44;;;14.37;31.22
19114;BME280;9689;51.052;13.772;2023-04-27T16:41:53;100654.34;;;15.20;29.69
19114;BME280;9689;51.052;13.772;2023-04-27T16:46:55;100646.19;;;15.28;29.31
19114;BME280;9689;51.052;13.772;2023-04-27T16:51:56;100655.88;;;16.26;28.09
19114;BME280;9689;51.052;13.772;2023-04-27T16:56:57;100652.00;;;15.38;28.21
19114;BME280;9689;51.052;13.772;2023-04-27T17:01:59;100662.69;;;15.58;28.98
19114;BME280;9689;51.052;13.772;2023-04-27T17:07:15;100657.56;;;16.03;27.53
19114;BME280;9689;51.052;13.772;2023-04-27T17:12:16;100665.44;;;16.50;27.25
19114;BME280;9689;51.052;13.772;2023-04-27T17:17:19;100655.53;;;16.57;26.96
19114;BME280;9689;51.052;13.772;2023-04-27T17:22:19;100669.34;;;15.68;28.21
19114;BME280;9689;51.052;13.772;2023-04-27T17:27:20;100669.63;;;15.08;29.31
19114;BME280;9689;51.052;13.772;2023-04-27T17:32:22;100664.25;;;15.37;28.98
19114;BME280;9689;51.052;13.772;2023-04-27T17:37:23;100671.50;;;15.04;29.01
19114;BME280;9689;51.052;13.772;2023-04-27T17:42:23;100666.84;;;13.97;30.59
19114;BME280;9689;51.052;13.772;2023-04-27T17:47:25;100671.66;;;12.76;34.20
19114;BME280;9689;51.052;13.772;2023-04-27T17:52:26;100686.59;;;11.40;36.63
19114;BME280;9689;51.052;13.772;2023-04-27T17:57:27;100686.91;;;11.21;37.68
19114;BME280;9689;51.052;13.772;2023-04-27T18:02:29;100688.34;;;10.84;38.58
19114;BME280;9689;51.052;13.772;2023-04-27T18:07:32;100697.56;;;10.47;39.74
19114;BME280;9689;51.052;13.772;2023-04-27T18:12:34;100690.03;;;10.22;39.85
19114;BME280;9689;51.052;13.772;2023-04-27T18:17:36;100703.31;;;10.00;40.78
19114;BME280;9689;51.052;13.772;2023-04-27T18:22:38;100701.75;;;9.85;41.28
19114;BME280;9689;51.052;13.772;2023-04-27T18:27:40;100716.56;;;9.79;42.42
19114;BME280;9689;51.052;13.772;2023-04-27T18:32:43;100715.91;;;9.54;43.19
19114;BME280;9689;51.052;13.772;2023-04-27T18:37:44;100723.03;;;9.33;43.89
19114;BME280;9689;51.052;13.772;2023-04-27T18:42:46;100723.94;;;9.28;43.56
19114;BME280;9689;51.052;13.772;2023-04-27T18:47:49;100737.06;;;9.16;44.21
19114;BME280;9689;51.052;13.772;2023-04-27T18:52:50;100737.13;;;9.06;45.47
19114;BME280;9689;51.052;13.772;2023-04-27T18:57:50;100742.41;;;8.91;45.57
19114;BME280;9689;51.052;13.772;2023-04-27T19:02:53;100758.03;;;8.85;46.73
19114;BME280;9689;51.052;13.772;2023-04-27T19:07:54;100755.53;;;8.65;46.75
19114;BME280;9689;51.052;13.772;2023-04-27T19:12:55;100761.66;;;8.57;48.69
19114;BME280;9689;51.052;13.772;2023-04-27T19:17:57;100773.81;;;8.42;49.17
19114;BME280;9689;51.052;13.772;2023-04-27T19:23:09;100770.38;;;8.31;49.04
19114;BME280;9689;51.052;13.772;2023-04-27T19:28:11;100769.56;;;8.18;50.17
19114;BME280;9689;51.052;13.772;2023-04-27T19:33:13;100766.09;;;8.15;50.74
19114;BME280;9689;51.052;13.772;2023-04-27T19:38:17;100768.75;;;7.93;51.43
19114;BME280;9689;51.052;13.772;2023-04-27T19:43:18;100765.28;;;7.87;52.17
19114;BME280;9689;51.052;13.772;2023-04-27T19:48:20;100765.28;;;7.90;52.98
19114;BME280;9689;51.052;13.772;2023-04-27T19:53:21;100758.38;;;7.81;52.94
19114;BME280;9689;51.052;13.772;2023-04-27T19:58:22;100753.19;;;7.72;53.61
19114;BME280;9689;51.052;13.772;2023-04-27T20:03:24;100746.31;;;7.65;52.96
19114;BME280;9689;51.052;13.772;2023-04-27T20:08:24;100745.44;;;7.57;53.09
19114;BME280;9689;51.052;13.772;2023-04-27T20:13:25;100748.00;;;7.63;53.74
19114;BME280;9689;51.052;13.772;2023-04-27T20:18:27;100742.84;;;7.49;54.54
19114;BME280;9689;51.052;13.772;2023-04-27T20:23:30;100746.31;;;7.41;55.55
19114;BME280;9689;51.052;13.772;2023-04-27T20:28:31;100748.88;;;7.27;55.78
19114;BME280;9689;51.052;13.772;2023-04-27T20:33:33;100745.41;;;7.20;57.45
19114;BME280;9689;51.052;13.772;2023-04-27T20:38:34;100748.88;;;7.10;57.35
19114;BME280;9689;51.052;13.772;2023-04-27T20:43:35;100760.09;;;7.12;57.84
19114;BME280;9689;51.052;13.772;2023-04-27T20:48:39;100762.69;;;6.98;57.19
19114;BME280;9689;51.052;13.772;2023-04-27T20:53:40;100752.31;;;6.97;57.02
19114;BME280;9689;51.052;13.772;2023-04-27T20:58:40;100753.16;;;7.03;57.61
19114;BME280;9689;51.052;13.772;2023-04-27T21:03:42;100750.59;;;6.96;57.46
19114;BME280;9689;51.052;13.772;2023-04-27T21:08:43;100754.84;;;6.77;58.92
19114;BME280;9689;51.052;13.772;2023-04-27T21:13:45;100750.56;;;6.80;59.80
19114;BME280;9689;51.052;13.772;2023-04-27T21:18:47;100743.66;;;6.78;59.79
19114;BME280;9689;51.052;13.772;2023-04-27T21:23:47;100731.50;;;6.66;60.20
19114;BME280;9689;51.052;13.772;2023-04-27T21:28:59;100729.78;;;6.65;59.43
19114;BME280;9689;51.052;13.772;2023-04-27T21:34:01;100736.66;;;6.60;60.48
19114;BME280;9689;51.052;13.772;2023-04-27T21:39:02;100729.75;;;6.58;60.97
19114;BME280;9689;51.052;13.772;2023-04-27T21:44:04;100740.06;;;6.42;61.16
19114;BME280;9689;51.052;13.772;2023-04-27T21:49:06;100727.94;;;6.34;61.41
19114;BME280;9689;51.052;13.772;2023-04-27T21:54:06;100726.25;;;6.34;62.52
19114;BME280;9689;51.052;13.772;2023-04-27T21:59:07;100730.53;;;6.29;61.96
19114;BME280;9689;51.052;13.772;2023-04-27T22:04:09;100725.31;;;6.18;62.67
19114;BME280;9689;51.052;13.772;2023-04-27T22:09:10;100736.47;;;6.10;63.17
19114;BME280;9689;51.052;13.772;2023-04-27T22:14:11;100733.03;;;6.09;63.58
19114;BME280;9689;51.052;13.772;2023-04-27T22:19:13;100728.63;;;5.98;63.18
19114;BME280;9689;51.052;13.772;2023-04-27T22:24:16;100731.22;;;5.93;64.10
19114;BME280;9689;51.052;13.772;2023-04-27T22:29:17;100730.28;;;5.85;65.07
19114;BME280;9689;51.052;13.772;2023-04-27T22:34:18;100741.44;;;5.78;65.27
19114;BME280;9689;51.052;13.772;2023-04-27T22:39:19;100738.78;;;5.67;65.00
19114;BME280;9689;51.052;13.772;2023-04-27T22:44:20;100737.88;;;5.62;65.30
19114;BME280;9689;51.052;13.772;2023-04-27T22:49:22;100735.22;;;5.56;65.66
19114;BME280;9689;51.052;13.772;2023-04-27T22:54:23;100736.94;;;5.51;66.47
19114;BME280;9689;51.052;13.772;2023-04-27T22:59:24;100734.22;;;5.38;67.08
19114;BME280;9689;51.052;13.772;2023-04-27T23:04:26;100732.50;;;5.36;67.45
19114;BME280;9689;51.052;13.772;2023-04-27T23:09:27;100724.75;;;5.34;67.01
19114;BME280;9689;51.052;13.772;2023-04-27T23:14:28;100729.84;;;5.30;67.24
19114;BME280;9689;51.052;13.772;2023-04-27T23:19:30;100725.53;;;5.24;67.60
19114;BME280;9689;51.052;13.772;2023-04-27T23:24:30;100722.06;;;5.24;66.63
19114;BME280;9689;51.052;13.772;2023-04-27T23:29:31;100732.31;;;5.13;67.39
19114;BME280;9689;51.052;13.772;2023-04-27T23:34:33;100721.09;;;5.09;68.35
19114;BME280;9689;51.052;13.772;2023-04-27T23:39:34;100712.47;;;5.07;68.63
19114;BME280;9689;51.052;13.772;2023-04-27T23:44:34;100718.41;;;4.99;68.59
19114;BME280;9689;51.052;13.772;2023-04-27T23:49:36;100712.31;;;4.92;68.50
19114;BME280;9689;51.052;13.772;2023-04-27T23:54:37;100702.81;;;4.90;68.89
19114;BME280;9689;51.052;13.772;2023-04-27T23:59:38;100695.88;;;4.84;68.84
